createdAt,value
2019-05-02T00:00:00.162Z,76.10
2019-05-02T00:02:33.052Z,76.72
2019-05-02T00:05:04.908Z,76.83
2019-05-02T00:07:35.985Z,76.94
2019-05-02T00:10:12.122Z,76.91
2019-05-02T00:12:44.912Z,76.82
2019-05-02T00:15:18.664Z,77.00
2019-05-02T00:17:49.794Z,77.36
2019-05-02T00:20:21.254Z,77.06
2019-05-02T00:22:53.472Z,77.16
2019-05-02T00:25:24.166Z,77.19
2019-05-02T00:27:54.869Z,76.87
2019-05-02T00:30:29.745Z,76.72
2019-05-02T00:32:59.494Z,77.09
2019-05-02T00:35:30.529Z,76.95
2019-05-02T00:38:02.433Z,76.82
2019-05-02T00:40:33.522Z,76.66
2019-05-02T00:43:04.393Z,76.64
2019-05-02T00:45:35.124Z,76.51
2019-05-02T00:48:10.120Z,76.55
2019-05-02T00:50:45.296Z,76.56
2019-05-02T00:53:14.725Z,76.50
2019-05-02T00:55:45.669Z,76.31
2019-05-02T00:58:16.682Z,76.10
2019-05-02T01:00:58.684Z,75.96
2019-05-02T01:03:32.039Z,76.28
2019-05-02T01:06:03.208Z,76.37
2019-05-02T01:08:35.619Z,76.65
2019-05-02T01:11:06.444Z,77.00
2019-05-02T01:13:37.115Z,76.92
2019-05-02T01:16:07.801Z,77.43
2019-05-02T01:18:41.288Z,77.47
2019-05-02T01:21:10.999Z,77.63
2019-05-02T01:23:41.695Z,77.49
2019-05-02T01:26:13.679Z,77.88
2019-05-02T01:29:02.245Z,77.33
2019-05-02T01:31:54.733Z,77.18
2019-05-02T01:34:25.215Z,77.08
2019-05-02T01:37:00.784Z,77.35
2019-05-02T01:39:32.086Z,77.77
2019-05-02T01:42:04.137Z,77.66
2019-05-02T01:44:36.491Z,77.89
2019-05-02T01:47:07.868Z,78.00
2019-05-02T01:49:38.983Z,77.80
2019-05-02T01:52:09.944Z,77.99
2019-05-02T01:54:45.398Z,78.06
2019-05-02T01:57:13.185Z,78.04
2019-05-02T01:59:44.251Z,78.15
2019-05-02T02:02:15.077Z,78.00
2019-05-02T02:04:45.766Z,78.67
2019-05-02T02:07:20.136Z,79.22
2019-05-02T02:23:14.123Z,78.37
2019-05-02T02:28:47.709Z,78.67
2019-05-02T02:31:21.792Z,78.73
2019-05-02T02:33:52.619Z,78.79
2019-05-02T02:36:31.509Z,78.93
2019-05-02T02:38:55.796Z,78.91
2019-05-02T02:41:26.877Z,78.78
2019-05-02T02:44:02.954Z,78.81
2019-05-02T02:46:37.693Z,78.73
2019-05-02T02:49:13.855Z,78.92
2019-05-02T02:51:40.811Z,79.05
2019-05-02T02:54:11.462Z,79.10
2019-05-02T02:56:42.992Z,78.91
2019-05-02T02:59:19.523Z,78.95
2019-05-02T03:01:46.075Z,78.99
2019-05-02T03:04:17.291Z,79.92
2019-05-02T03:06:48.055Z,79.20
2019-05-02T03:09:20.027Z,78.52
2019-05-02T03:12:09.033Z,79.04
2019-05-02T03:14:47.240Z,78.70
2019-05-02T03:17:20.579Z,78.45
2019-05-02T03:19:47.897Z,78.35
2019-05-02T03:22:19.203Z,78.50
2019-05-02T03:24:49.859Z,78.27
2019-05-02T03:27:20.557Z,78.14
2019-05-02T03:29:51.245Z,77.16
2019-05-02T03:32:33.761Z,77.08
2019-05-02T03:34:54.574Z,77.77
2019-05-02T03:37:25.558Z,76.46
2019-05-02T03:39:57.731Z,76.86
2019-05-02T03:42:30.005Z,76.54
2019-05-02T03:45:04.811Z,76.34
2019-05-02T03:47:36.758Z,75.79
2019-05-02T03:50:09.196Z,75.64
2019-05-02T03:52:43.352Z,75.51
2019-05-02T03:55:12.631Z,75.17
2019-05-02T03:57:44.512Z,75.50
2019-05-02T04:00:21.376Z,75.74
2019-05-02T04:02:59.275Z,75.15
2019-05-02T04:05:21.379Z,75.69
2019-05-02T04:07:52.315Z,75.40
2019-05-02T04:10:52.750Z,74.88
2019-05-02T04:13:22.800Z,74.85
2019-05-02T04:15:53.884Z,74.84
2019-05-02T04:18:25.638Z,75.13
2019-05-02T04:20:56.841Z,74.26
2019-05-02T04:23:29.907Z,74.17
2019-05-02T04:26:06.915Z,74.23
2019-05-02T04:28:35.487Z,74.39
2019-05-02T04:31:06.181Z,74.50
2019-05-02T04:33:36.861Z,74.61
2019-05-02T04:36:15.274Z,73.73
2019-05-02T04:38:47.615Z,74.32
2019-05-02T04:41:18.861Z,73.76
2019-05-02T04:43:57.461Z,73.65
2019-05-02T04:46:26.928Z,74.14
2019-05-02T04:48:54.686Z,73.24
2019-05-02T04:51:28.654Z,73.54
2019-05-02T04:53:58.894Z,73.71
2019-05-02T04:56:29.799Z,73.05
2019-05-02T04:59:01.940Z,72.78
2019-05-02T05:01:43.360Z,73.07
2019-05-02T05:04:10.911Z,72.81
2019-05-02T05:06:54.944Z,72.62
2019-05-02T05:09:15.087Z,73.15
2019-05-02T05:11:48.096Z,72.92
2019-05-02T05:14:19.941Z,73.51
2019-05-02T05:16:55.498Z,74.00
2019-05-02T05:19:30.868Z,72.87
2019-05-02T05:22:04.367Z,72.81
2019-05-02T05:24:32.735Z,72.52
2019-05-02T05:27:03.726Z,72.04
2019-05-02T05:29:34.474Z,71.95
2019-05-02T05:32:09.747Z,71.77
2019-05-02T05:34:38.114Z,72.33
2019-05-02T05:37:13.210Z,71.61
2019-05-02T05:39:43.106Z,71.72
2019-05-02T05:42:17.886Z,70.76
2019-05-02T05:44:48.479Z,71.01
2019-05-02T05:47:21.250Z,70.98
2019-05-02T05:49:57.546Z,70.88
2019-05-02T05:52:27.047Z,71.33
2019-05-02T05:54:57.919Z,71.22
2019-05-02T05:57:29.039Z,71.01
2019-05-02T06:00:03.754Z,70.20
2019-05-02T06:02:52.341Z,70.08
2019-05-02T06:05:09.354Z,70.60
2019-05-02T06:07:44.000Z,69.35
2019-05-02T06:10:13.345Z,68.28
2019-05-02T06:12:44.402Z,66.93
2019-05-02T06:15:15.515Z,67.39
2019-05-02T06:17:46.613Z,67.01
2019-05-02T06:20:17.997Z,66.97
2019-05-02T06:22:49.138Z,67.95
2019-05-02T06:25:32.788Z,68.25
2019-05-02T06:27:54.530Z,66.86
2019-05-02T06:30:27.120Z,66.44
2019-05-02T06:32:57.984Z,66.54
2019-05-02T06:35:29.757Z,65.74
2019-05-02T06:38:00.834Z,64.24
2019-05-02T06:40:31.553Z,63.71
2019-05-02T06:43:04.286Z,63.20
2019-05-02T06:45:37.552Z,62.86
2019-05-02T06:48:07.450Z,62.65
2019-05-02T06:50:40.401Z,62.32
2019-05-02T06:53:11.226Z,62.88
2019-05-02T06:55:42.418Z,62.01
2019-05-02T06:58:13.181Z,61.51
2019-05-02T07:00:56.702Z,60.59
2019-05-02T07:03:17.081Z,62.55
2019-05-02T07:05:49.186Z,61.62
2019-05-02T07:08:21.964Z,60.94
2019-05-02T07:10:55.850Z,60.91
2019-05-02T07:13:26.152Z,60.98
2019-05-02T07:16:10.619Z,61.16
2019-05-02T07:18:53.852Z,61.52
2019-05-02T07:21:24.812Z,62.19
2019-05-02T07:23:56.846Z,61.97
2019-05-02T07:26:27.885Z,62.28
2019-05-02T07:28:58.708Z,62.14
2019-05-02T07:31:29.829Z,61.94
2019-05-02T07:34:00.524Z,61.90
2019-05-02T07:36:36.404Z,61.23
2019-05-02T07:39:06.395Z,60.75
2019-05-02T07:41:37.485Z,59.83
2019-05-02T07:44:09.368Z,59.67
2019-05-02T07:46:51.167Z,60.04
2019-05-02T07:49:12.453Z,60.07
2019-05-02T07:51:43.515Z,59.28
2019-05-02T07:54:14.422Z,58.41
2019-05-02T07:56:48.659Z,59.00
2019-05-02T07:59:23.427Z,58.61
2019-05-02T08:01:51.822Z,58.33
2019-05-02T08:04:22.896Z,58.19
2019-05-02T08:06:53.582Z,58.74
2019-05-02T08:09:24.941Z,57.45
2019-05-02T08:12:24.038Z,55.86
2019-05-02T08:15:13.191Z,55.72
2019-05-02T08:17:53.248Z,55.85
2019-05-02T08:20:19.165Z,56.55
2019-05-02T08:22:50.638Z,57.14
2019-05-02T08:25:21.840Z,56.96
2019-05-02T08:27:57.118Z,57.31
2019-05-02T08:30:30.034Z,57.03
2019-05-02T08:33:00.801Z,55.02
2019-05-02T08:35:32.619Z,55.63
2019-05-02T08:38:03.599Z,57.04
2019-05-02T08:40:34.347Z,57.79
2019-05-02T08:43:09.441Z,56.88
2019-05-02T08:45:39.487Z,57.15
2019-05-02T08:48:10.333Z,55.10
2019-05-02T08:50:41.271Z,53.40
2019-05-02T08:53:14.235Z,53.27
2019-05-02T08:55:45.332Z,53.16
2019-05-02T08:58:17.438Z,52.80
2019-05-02T09:00:48.118Z,54.05
2019-05-02T09:03:18.810Z,53.26
2019-05-02T09:05:49.858Z,53.08
2019-05-02T09:08:20.805Z,53.12
2019-05-02T09:10:51.500Z,53.19
2019-05-02T09:13:27.163Z,51.54
2019-05-02T09:15:55.565Z,50.87
2019-05-02T09:18:35.264Z,49.66
2019-05-02T09:20:58.683Z,48.21
2019-05-02T09:23:35.001Z,47.58
2019-05-02T09:26:02.554Z,47.46
2019-05-02T09:28:33.748Z,47.29
2019-05-02T09:31:06.715Z,47.04
2019-05-02T09:33:42.429Z,46.72
2019-05-02T09:36:09.429Z,46.05
2019-05-02T09:38:42.499Z,45.01
2019-05-02T09:41:19.040Z,45.89
2019-05-02T09:43:46.035Z,44.76
2019-05-02T09:46:17.179Z,44.87
2019-05-02T09:48:48.218Z,44.71
2019-05-02T09:51:21.609Z,43.63
2019-05-02T09:53:57.046Z,43.17
2019-05-02T09:56:25.401Z,41.27
2019-05-02T09:59:04.742Z,44.00
2019-05-02T10:01:31.702Z,44.25
2019-05-02T10:04:02.536Z,43.18
2019-05-02T10:06:34.090Z,41.33
2019-05-02T10:09:07.853Z,42.16
2019-05-02T10:11:41.814Z,41.58
2019-05-02T10:14:13.838Z,41.98
2019-05-02T10:16:44.771Z,40.33
2019-05-02T10:19:15.805Z,41.31
2019-05-02T10:21:51.392Z,41.48
2019-05-02T10:24:19.657Z,41.96
2019-05-02T10:26:55.187Z,41.70
2019-05-02T10:29:28.069Z,40.88
2019-05-02T10:31:55.376Z,39.92
2019-05-02T10:34:26.072Z,40.74
2019-05-02T10:36:59.091Z,40.80
2019-05-02T10:39:36.160Z,39.86
2019-05-02T10:42:02.156Z,39.92
2019-05-02T10:44:36.476Z,40.04
2019-05-02T10:47:05.705Z,40.72
2019-05-02T10:49:38.335Z,39.35
2019-05-02T10:52:09.401Z,40.39
2019-05-02T10:54:42.098Z,40.14
2019-05-02T10:57:13.320Z,39.06
2019-05-02T10:59:44.053Z,39.12
2019-05-02T11:02:16.834Z,39.51
2019-05-02T11:04:49.607Z,39.74
2019-05-02T11:07:22.685Z,40.53
2019-05-02T11:09:52.807Z,39.58
2019-05-02T11:12:40.284Z,40.01
2019-05-02T11:15:16.752Z,39.05
2019-05-02T11:17:48.869Z,39.71
2019-05-02T11:20:19.724Z,40.50
2019-05-02T11:22:52.691Z,40.76
2019-05-02T11:25:23.119Z,40.49
2019-05-02T11:27:57.347Z,39.95
2019-05-02T11:30:26.820Z,39.04
2019-05-02T11:32:57.960Z,39.52
2019-05-02T11:35:29.027Z,40.52
2019-05-02T11:38:02.332Z,39.50
2019-05-02T11:40:32.947Z,40.34
2019-05-02T11:43:06.762Z,40.43
2019-05-02T11:45:36.367Z,41.13
2019-05-02T11:48:09.364Z,41.01
2019-05-02T11:50:40.043Z,42.07
2019-05-02T11:53:24.855Z,40.02
2019-05-02T11:55:43.907Z,39.03
2019-05-02T11:58:15.323Z,39.67
2019-05-02T12:00:49.535Z,40.99
2019-05-02T12:03:21.960Z,41.67
2019-05-02T12:05:52.774Z,39.67
2019-05-02T12:08:23.447Z,40.06
2019-05-02T12:10:54.426Z,40.50
2019-05-02T12:13:25.461Z,40.52
2019-05-02T12:15:56.198Z,41.49
2019-05-02T12:18:27.340Z,41.37
2019-05-02T12:21:19.131Z,41.14
2019-05-02T12:23:51.995Z,42.53
2019-05-02T12:26:22.770Z,41.37
2019-05-02T12:28:53.835Z,41.92
2019-05-02T12:31:32.498Z,42.30
2019-05-02T12:34:05.102Z,43.04
2019-05-02T12:36:36.207Z,42.81
2019-05-02T12:39:08.018Z,43.67
2019-05-02T12:41:39.142Z,43.73
2019-05-02T12:44:11.755Z,42.91
2019-05-02T12:46:42.893Z,42.82
2019-05-02T12:49:24.807Z,42.51
2019-05-02T12:51:46.283Z,42.30
2019-05-02T12:54:16.978Z,43.37
2019-05-02T12:56:47.975Z,42.31
2019-05-02T12:59:18.987Z,42.67
2019-05-02T13:01:51.696Z,42.87
2019-05-02T13:04:23.029Z,42.23
2019-05-02T13:06:53.811Z,42.33
2019-05-02T13:09:24.745Z,43.14
2019-05-02T13:11:55.381Z,41.29
2019-05-02T13:14:28.238Z,41.57
2019-05-02T13:17:03.866Z,41.55
2019-05-02T13:19:40.066Z,40.84
2019-05-02T13:22:09.520Z,42.32
2019-05-02T13:24:42.388Z,42.53
2019-05-02T13:27:16.269Z,41.46
2019-05-02T13:29:48.520Z,40.76
2019-05-02T13:32:23.863Z,40.22
2019-05-02T13:35:15.151Z,39.26
2019-05-02T13:37:47.507Z,39.90
2019-05-02T13:40:22.455Z,40.33
2019-05-02T13:42:52.772Z,39.85
2019-05-02T13:45:37.122Z,41.29
2019-05-02T13:48:08.566Z,40.35
2019-05-02T13:50:39.615Z,41.14
2019-05-02T13:53:12.183Z,39.75
2019-05-02T13:55:47.620Z,40.55
2019-05-02T13:58:21.646Z,37.43
2019-05-02T14:00:52.902Z,38.59
2019-05-02T14:03:24.246Z,37.53
2019-05-02T14:05:55.296Z,38.17
2019-05-02T14:08:35.479Z,38.87
2019-05-02T14:11:02.031Z,40.02
2019-05-02T14:13:32.856Z,38.86
2019-05-02T14:16:03.836Z,38.95
2019-05-02T14:18:34.794Z,38.18
2019-05-02T14:21:05.931Z,38.66
2019-05-02T14:23:36.601Z,38.41
2019-05-02T14:26:07.607Z,37.93
2019-05-02T14:28:38.862Z,39.10
2019-05-02T14:31:11.796Z,39.61
2019-05-02T14:33:43.975Z,37.97
2019-05-02T14:36:14.754Z,37.54
2019-05-02T14:38:46.057Z,37.53
2019-05-02T14:41:18.722Z,38.20
2019-05-02T14:43:53.278Z,37.70
2019-05-02T14:46:29.027Z,38.40
2019-05-02T14:48:58.224Z,37.99
2019-05-02T14:51:29.265Z,38.19
2019-05-02T14:54:08.152Z,39.67
2019-05-02T14:56:46.214Z,39.27
2019-05-02T14:59:17.912Z,39.88
2019-05-02T15:01:47.001Z,39.97
2019-05-02T15:04:18.048Z,39.78
2019-05-02T15:06:49.261Z,40.22
2019-05-02T15:09:26.624Z,40.76
2019-05-02T15:12:03.069Z,39.76
2019-05-02T15:14:35.269Z,40.66
2019-05-02T15:17:07.947Z,41.11
2019-05-02T15:19:38.651Z,42.37
2019-05-02T15:22:09.736Z,41.36
2019-05-02T15:24:42.241Z,41.29
2019-05-02T15:27:17.532Z,41.32
2019-05-02T15:29:45.389Z,41.37
2019-05-02T15:32:16.203Z,41.90
2019-05-02T15:35:05.207Z,42.72
2019-05-02T15:37:36.327Z,43.09
2019-05-02T15:42:43.921Z,44.37
2019-05-02T15:45:14.993Z,43.31
2019-05-02T15:47:46.086Z,43.63
2019-05-02T15:50:23.845Z,42.80
2019-05-02T15:53:39.136Z,43.04
2019-05-02T15:56:19.877Z,43.75
2019-05-02T15:58:44.705Z,43.92
2019-05-02T16:01:36.749Z,45.04
2019-05-02T16:04:09.166Z,45.43
2019-05-02T16:06:41.900Z,45.65
2019-05-02T16:09:12.734Z,45.89
2019-05-02T16:11:47.946Z,46.13
2019-05-02T16:14:16.283Z,46.64
2019-05-02T16:16:47.331Z,47.19
2019-05-02T16:19:27.042Z,46.89
2019-05-02T16:22:08.157Z,47.90
2019-05-02T16:24:39.239Z,46.71
2019-05-02T16:27:11.676Z,47.72
2019-05-02T16:29:42.776Z,48.18
2019-05-02T16:32:16.162Z,48.40
2019-05-02T16:34:54.375Z,47.68
2019-05-02T16:37:25.651Z,47.80
2019-05-02T16:39:57.186Z,47.76
2019-05-02T16:42:29.291Z,47.93
2019-05-02T16:45:02.454Z,48.12
2019-05-02T16:47:33.221Z,47.64
2019-05-02T16:50:05.861Z,47.50
2019-05-02T16:52:38.247Z,47.05
2019-05-02T16:55:15.101Z,46.10
2019-05-02T16:57:43.311Z,46.69
2019-05-02T17:00:24.327Z,46.63
2019-05-02T17:02:55.238Z,47.12
2019-05-02T17:05:26.285Z,47.33
2019-05-02T17:08:18.821Z,48.55
2019-05-02T17:10:54.563Z,48.34
2019-05-02T17:13:27.446Z,48.53
2019-05-02T17:15:56.505Z,48.67
2019-05-02T17:18:27.801Z,49.19
2019-05-02T17:20:58.889Z,49.95
2019-05-02T17:23:30.077Z,49.63
2019-05-02T17:26:17.581Z,49.56
2019-05-02T17:29:16.412Z,50.92
2019-05-02T17:31:50.140Z,50.38
2019-05-02T17:34:29.965Z,50.97
2019-05-02T17:36:59.152Z,51.08
2019-05-02T17:39:29.206Z,51.04
2019-05-02T17:42:00.932Z,51.30
2019-05-02T17:44:32.995Z,51.18
2019-05-02T17:47:03.748Z,50.96
2019-05-02T17:49:36.697Z,51.24
2019-05-02T17:52:19.781Z,51.28
2019-05-02T17:54:52.716Z,51.66
2019-05-02T17:57:22.997Z,51.80
2019-05-02T17:59:54.030Z,51.80
2019-05-02T18:02:24.829Z,52.17
2019-05-02T18:04:56.257Z,52.86
2019-05-02T18:07:32.120Z,52.92
2019-05-02T18:10:05.961Z,53.34
2019-05-02T18:12:34.561Z,53.89
2019-05-02T18:15:08.843Z,53.78
2019-05-02T18:17:39.665Z,53.91
2019-05-02T18:20:12.412Z,54.08
2019-05-02T18:22:45.334Z,54.30
2019-05-02T18:25:21.633Z,54.41
2019-05-02T18:27:49.215Z,54.72
2019-05-02T18:30:22.867Z,54.97
2019-05-02T18:32:57.718Z,54.62
2019-05-02T18:35:27.424Z,55.03
2019-05-02T18:37:58.483Z,55.40
2019-05-02T18:40:32.006Z,55.19
2019-05-02T18:43:05.273Z,55.23
2019-05-02T18:45:35.055Z,56.15
2019-05-02T18:48:06.960Z,55.58
2019-05-02T18:50:46.653Z,55.56
2019-05-02T18:53:18.646Z,55.50
2019-05-02T18:55:47.532Z,55.40
2019-05-02T18:58:18.587Z,55.82
2019-05-02T19:00:51.815Z,55.89
2019-05-02T19:03:23.154Z,56.06
2019-05-02T19:05:57.341Z,56.14
2019-05-02T19:08:30.837Z,56.11
2019-05-02T19:11:08.454Z,56.38
2019-05-02T19:13:37.513Z,56.37
2019-05-02T19:16:07.705Z,56.57
2019-05-02T19:18:38.626Z,57.15
2019-05-02T19:21:12.524Z,57.71
2019-05-02T19:23:43.294Z,57.37
2019-05-02T19:26:15.384Z,58.03
2019-05-02T19:28:52.288Z,58.06
2019-05-02T19:31:24.632Z,58.32
2019-05-02T19:33:55.696Z,58.94
2019-05-02T19:36:27.862Z,59.06
2019-05-02T19:39:06.278Z,59.01
2019-05-02T19:41:39.091Z,59.16
2019-05-02T19:44:07.099Z,59.40
2019-05-02T19:46:39.026Z,59.04
2019-05-02T19:49:12.492Z,59.38
2019-05-02T19:51:43.892Z,59.31
2019-05-02T19:54:15.158Z,59.90
2019-05-02T19:56:47.435Z,60.20
2019-05-02T19:59:24.513Z,60.51
2019-05-02T20:01:52.335Z,61.04
2019-05-02T20:04:23.989Z,61.04
2019-05-02T20:06:54.840Z,61.57
2019-05-02T20:09:25.952Z,61.84
2019-05-02T20:11:57.437Z,62.71
2019-05-02T20:14:28.474Z,62.96
2019-05-02T20:17:02.214Z,63.20
2019-05-02T20:19:35.053Z,63.62
2019-05-02T20:22:11.799Z,63.83
2019-05-02T20:24:55.376Z,64.13
2019-05-02T20:27:28.286Z,64.51
2019-05-02T20:29:58.674Z,65.17
2019-05-02T20:32:29.340Z,65.20
2019-05-02T20:35:00.248Z,65.01
2019-05-02T20:37:32.473Z,64.90
2019-05-02T20:40:03.712Z,64.74
2019-05-02T20:42:34.415Z,64.33
2019-05-02T20:45:07.813Z,64.69
2019-05-02T20:47:38.905Z,65.63
2019-05-02T20:50:11.965Z,66.37
2019-05-02T20:52:42.259Z,66.16
2019-05-02T20:55:13.350Z,66.41
2019-05-02T20:57:44.067Z,66.63
2019-05-02T21:00:28.021Z,66.35
2019-05-02T21:02:59.130Z,66.41
2019-05-02T21:05:42.672Z,65.88
2019-05-02T21:08:32.484Z,66.09
2019-05-02T21:11:06.680Z,66.22
2019-05-02T21:13:37.630Z,65.77
2019-05-02T21:16:08.688Z,65.97
2019-05-02T21:18:39.378Z,66.11
2019-05-02T21:21:12.421Z,66.38
2019-05-02T21:23:47.494Z,66.37
2019-05-02T21:26:16.628Z,67.48
2019-05-02T21:28:47.376Z,67.94
2019-05-02T21:31:18.210Z,68.15
2019-05-02T21:33:49.443Z,67.67
2019-05-02T21:36:22.560Z,68.32
2019-05-02T21:38:53.081Z,68.06
2019-05-02T21:41:24.411Z,67.84
2019-05-02T21:43:55.375Z,66.20
2019-05-02T21:46:27.186Z,66.31
2019-05-02T21:48:58.393Z,66.45
2019-05-02T21:51:31.983Z,66.00
2019-05-02T21:54:13.755Z,66.30
2019-05-02T21:56:49.389Z,67.25
2019-05-02T21:59:22.353Z,68.49
2019-05-02T22:01:54.786Z,69.21
2019-05-02T22:04:25.560Z,69.89
2019-05-02T22:06:56.593Z,70.14
2019-05-02T22:09:27.600Z,70.63
2019-05-02T22:11:58.440Z,71.02
2019-05-02T22:14:30.239Z,71.24
2019-05-02T22:17:02.289Z,71.31
2019-05-02T22:19:33.644Z,72.05
2019-05-02T22:22:04.327Z,72.05
2019-05-02T22:24:35.016Z,72.97
2019-05-02T22:27:06.164Z,72.66
2019-05-02T22:29:37.339Z,72.72
2019-05-02T22:32:08.359Z,72.89
2019-05-02T22:34:39.525Z,73.11
2019-05-02T22:37:12.518Z,73.58
2019-05-02T22:39:56.940Z,72.99
2019-05-02T22:42:27.977Z,72.40
2019-05-02T22:44:58.939Z,71.56
2019-05-02T22:47:29.692Z,69.55
2019-05-02T22:50:00.787Z,68.74
2019-05-02T22:52:32.244Z,68.35
2019-05-02T22:55:03.393Z,67.24
2019-05-02T22:57:34.170Z,67.42
2019-05-02T23:00:08.542Z,66.93
2019-05-02T23:02:41.900Z,66.41
2019-05-02T23:05:13.150Z,66.14
2019-05-02T23:07:43.793Z,65.84
2019-05-02T23:10:14.674Z,66.29
2019-05-02T23:12:45.788Z,66.42
2019-05-02T23:15:16.863Z,66.45
2019-05-02T23:17:47.978Z,65.77
2019-05-02T23:20:19.046Z,66.08
2019-05-02T23:22:50.082Z,66.20
2019-05-02T23:25:39.160Z,65.85
2019-05-02T23:28:11.888Z,66.19
2019-05-02T23:30:42.922Z,66.23
2019-05-02T23:33:13.623Z,66.61
2019-05-02T23:35:44.355Z,67.01
2019-05-02T23:38:16.264Z,67.24
2019-05-02T23:40:47.239Z,67.10
2019-05-02T23:43:18.008Z,67.15
2019-05-02T23:45:49.003Z,67.20
2019-05-02T23:48:22.004Z,66.89
2019-05-02T23:50:52.724Z,66.93
2019-05-02T23:53:23.407Z,67.84
2019-05-02T23:55:55.037Z,67.63
2019-05-02T23:58:26.030Z,67.30
